Historique des mesures à Cassis (13260), France
Quotidien Résumé Mars 1, 2017 Unités:  Métrique    US   Métrique/US
« Précédent (Jour)
Suivant (Jour) »
Quotidien Hebdomadaire Mensuel Annuel Période au choix
  Maximum: Minimum: Moyenne:
Température: TemperatureC °C 6.6 °C 10.2 °C
Point de rosée: DewpointC °C -0.7 °C 2.7 °C
Humidité: Humidity % 49 % 57 %
Vitesse du vent: 0 km/h 0 km/h 9.3 km/h
Rafales: 0 km/h - -
Vent:- - SW
Pression: PressurehPa hPa 1008.4 hPa -
Précipitations: 0.0 mm    
Historical Graphs
 
 
Mesures pour : Mars 1, 2017
Heure Temperature Point de rosée Pression Vent Vitesse du vent Rafales Humidité Pluie (par heure) Conditions
TemperatureC °C DewpointC °C PressurehPa hPa Calm     Humidity % HourlyPrecipMM mm SoftwareType W/m2
00:10 9.2 °C 2.3 °C 1008.4 hPa NE 2.9 km/h 26.2 km/h 62 % 0.0 mm open2300-1.11 W/m2
01:11 8.9 °C 1.3 °C 1009.0 hPa WNW 41.2 km/h 41.2 km/h 59 % 0.0 mm open2300-1.11 W/m2
02:10 8.6 °C 0.0 °C 1009.7 hPa NNW 6.4 km/h 22 km/h 55 % 0.0 mm open2300-1.11 W/m2
03:11 8.1 °C -0.7 °C 1010.7 hPa NNW 9.3 km/h 9.3 km/h 54 % 0.0 mm open2300-1.11 W/m2
04:10 7.8 °C -0.5 °C 1011.4 hPa WNW 13.2 km/h 13.2 km/h 56 % 0.0 mm open2300-1.11 W/m2
05:11 7.6 °C -0.2 °C 1011.7 hPa North 6.4 km/h 11.6 km/h 58 % 0.0 mm open2300-1.11 W/m2
06:10 7.4 °C 0.2 °C 1013.1 hPa Calm     60 % 0.0 mm open2300-1.11 W/m2
07:11 6.6 °C -0.2 °C 1013.1 hPa Calm     62 % 0.0 mm open2300-1.11 W/m2
08:11 7.3 °C 0.3 °C 1013.4 hPa NNE 9.3 km/h 9.3 km/h 61 % 0.0 mm open2300-1.11 W/m2
09:10 9.1 °C 0.5 °C 1013.8 hPa WNW 31.4 km/h 31.4 km/h 55 % 0.0 mm open2300-1.11 W/m2
10:11 9.6 °C 1.5 °C 1014.1 hPa North 10.3 km/h 26.2 km/h 57 % 0.0 mm open2300-1.11 W/m2
11:10 10.8 °C 2.1 °C 1014.8 hPa NW 14.5 km/h 18.7 km/h 55 % 0.0 mm open2300-1.11 W/m2
12:11 11.8 °C 3.0 °C 1014.8 hPa Calm   15.6 km/h 55 % 0.0 mm open2300-1.11 W/m2
13:10 12.5 °C 2.6 °C 1014.4 hPa WNW 24.8 km/h 25.4 km/h 51 % 0.0 mm open2300-1.11 W/m2
14:11 12.9 °C 2.4 °C 1013.4 hPa WNW 36 km/h 36 km/h 49 % 0.0 mm open2300-1.11 W/m2
15:10 13.3 °C 4.7 °C 1013.4 hPa WNW 9.8 km/h 19.6 km/h 56 % 0.0 mm open2300-1.11 W/m2
16:11 13.5 °C 5.1 °C 1014.1 hPa Calm   23 km/h 57 % 0.0 mm open2300-1.11 W/m2
17:10 13.6 °C 4.4 °C 1014.4 hPa WNW 8.9 km/h 9.3 km/h 54 % 0.0 mm open2300-1.11 W/m2
18:11 12.4 °C 3.8 °C 1015.1 hPa WSW 8.9 km/h 8.9 km/h 56 % 0.0 mm open2300-1.11 W/m2
19:10 12.3 °C 5.0 °C 1015.8 hPa Calm     61 % 0.0 mm open2300-1.11 W/m2
20:11 12.1 °C 6.1 °C 1016.1 hPa Calm     67 % 0.0 mm open2300-1.11 W/m2
21:10 12.7 °C 7.4 °C 1015.8 hPa Calm   8.9 km/h 70 % 0.0 mm open2300-1.11 W/m2
22:11 12.9 °C 8.0 °C 1016.1 hPa Calm     72 % 0.0 mm open2300-1.11 W/m2
23:10 13.1 °C 8.3 °C 1016.1 hPa Calm     73 % 0.0 mm open2300-1.11 W/m2
Observations météo à CASSIS
WU-History script by Weather Underground - 1 mb